createdAt,value
2022-12-23T00:01:59.495Z,9.97
2022-12-23T00:04:28.549Z,10.07
2022-12-23T00:06:56.092Z,10.52
2022-12-23T00:09:23.743Z,12.43
2022-12-23T00:12:10.123Z,11.82
2022-12-23T00:14:55.219Z,10.30
2022-12-23T00:17:23.434Z,11.35
2022-12-23T00:19:52.427Z,15.18
2022-12-23T00:22:20.046Z,11.88
2022-12-23T00:24:48.892Z,11.50
2022-12-23T00:27:17.404Z,11.43
2022-12-23T00:29:45.076Z,11.10
2022-12-23T00:32:12.891Z,12.02
2022-12-23T00:34:40.496Z,10.82
2022-12-23T00:37:09.504Z,12.38
2022-12-23T00:39:55.461Z,11.87
2022-12-23T00:42:40.921Z,10.27
2022-12-23T00:45:16.466Z,11.30
2022-12-23T00:48:01.967Z,9.63
2022-12-23T00:50:29.972Z,10.73
2022-12-23T00:52:59.119Z,9.30
2022-12-23T00:55:26.797Z,10.23
2022-12-23T00:57:54.644Z,7.43
2022-12-23T01:00:44.346Z,10.57
2022-12-23T01:03:30.725Z,8.77
2022-12-23T01:05:59.038Z,7.43
2022-12-23T01:08:28.419Z,6.25
2022-12-23T01:10:56.253Z,6.90
2022-12-23T01:13:24.154Z,7.50
2022-12-23T01:15:51.783Z,7.30
2022-12-23T01:18:19.410Z,6.10
2022-12-23T01:20:47.049Z,5.88
2022-12-23T01:23:18.038Z,8.68
2022-12-23T01:25:48.028Z,6.95
2022-12-23T01:28:15.646Z,7.28
2022-12-23T01:30:43.324Z,9.20
2022-12-23T01:33:15.035Z,6.88
2022-12-23T01:35:42.638Z,7.78
2022-12-23T01:38:10.232Z,7.15
2022-12-23T01:40:37.806Z,6.35
2022-12-23T01:43:05.745Z,6.20
2022-12-23T01:45:33.887Z,6.22
2022-12-23T01:48:03.111Z,7.38
2022-12-23T01:50:32.481Z,7.30
2022-12-23T01:53:07.220Z,7.70
2022-12-23T01:55:37.662Z,5.57
2022-12-23T01:58:09.181Z,5.95
2022-12-23T02:00:54.943Z,5.03
2022-12-23T02:03:40.272Z,5.68
2022-12-23T02:06:26.628Z,4.65
2022-12-23T02:09:11.707Z,4.10
2022-12-23T02:11:57.050Z,4.82
2022-12-23T02:14:48.108Z,4.88
2022-12-23T02:17:18.915Z,4.82
2022-12-23T02:20:08.306Z,6.05
2022-12-23T02:22:47.101Z,6.33
2022-12-23T02:25:37.843Z,5.72
2022-12-23T02:28:14.838Z,7.22
2022-12-23T02:30:46.958Z,6.40
2022-12-23T02:33:20.529Z,6.65
2022-12-23T02:35:51.845Z,7.87
2022-12-23T02:38:24.531Z,7.78
2022-12-23T02:40:56.370Z,9.15
2022-12-23T02:43:27.748Z,7.43
2022-12-23T02:45:59.067Z,7.28
2022-12-23T02:48:32.182Z,9.13
2022-12-23T02:51:01.603Z,7.35
2022-12-23T02:53:36.607Z,6.47
2022-12-23T02:56:06.051Z,6.43
2022-12-23T02:58:35.989Z,7.10
2022-12-23T03:01:07.148Z,7.90
2022-12-23T03:03:36.807Z,6.85
2022-12-23T03:06:11.632Z,6.47
2022-12-23T03:08:41.807Z,7.43
2022-12-23T03:11:11.409Z,8.15
2022-12-23T03:13:49.916Z,7.43
2022-12-23T03:16:22.815Z,6.18
2022-12-23T03:18:55.699Z,9.48
2022-12-23T03:21:25.519Z,7.55
2022-12-23T03:23:56.054Z,7.78
2022-12-23T03:26:27.888Z,9.73
2022-12-23T03:28:56.943Z,9.15
2022-12-23T03:31:27.868Z,6.45
2022-12-23T03:33:58.524Z,8.35
2022-12-23T03:36:30.674Z,10.05
2022-12-23T03:38:58.487Z,7.97
2022-12-23T03:41:28.459Z,9.15
2022-12-23T03:43:58.681Z,9.70
2022-12-23T03:46:31.757Z,9.80
2022-12-23T03:49:01.880Z,8.65
2022-12-23T03:51:32.487Z,8.43
2022-12-23T03:54:00.781Z,8.98
2022-12-23T03:56:29.859Z,8.80
2022-12-23T03:59:00.048Z,7.35
2022-12-23T04:01:35.696Z,8.25
2022-12-23T04:04:10.182Z,7.03
2022-12-23T04:06:40.348Z,8.43
2022-12-23T04:09:08.370Z,7.85
2022-12-23T04:11:36.582Z,7.85
2022-12-23T04:14:04.323Z,7.22
2022-12-23T04:16:33.496Z,7.83
2022-12-23T04:19:01.218Z,7.57
2022-12-23T04:21:30.361Z,7.85
2022-12-23T04:23:57.877Z,7.78
2022-12-23T04:26:25.418Z,6.82
2022-12-23T04:28:53.091Z,7.53
2022-12-23T04:31:20.635Z,11.80
2022-12-23T04:33:49.625Z,10.52
2022-12-23T04:36:17.238Z,8.32
2022-12-23T04:38:45.364Z,8.93
2022-12-23T04:41:13.036Z,9.37
2022-12-23T04:43:40.782Z,9.88
2022-12-23T04:46:08.477Z,8.32
2022-12-23T04:48:36.795Z,10.50
2022-12-23T04:51:05.894Z,7.88
2022-12-23T04:53:33.460Z,7.23
2022-12-23T04:56:01.072Z,7.45
2022-12-23T04:58:28.675Z,7.10
2022-12-23T05:01:02.010Z,9.48
2022-12-23T05:03:29.917Z,7.97
2022-12-23T05:05:57.582Z,8.23
2022-12-23T05:08:26.601Z,7.10
2022-12-23T05:10:54.542Z,10.13
2022-12-23T05:13:22.380Z,7.82
2022-12-23T05:15:50.769Z,9.50
2022-12-23T05:18:18.481Z,7.27
2022-12-23T05:20:46.071Z,7.50
2022-12-23T05:23:13.644Z,7.88
2022-12-23T05:25:51.179Z,9.85
2022-12-23T05:28:19.029Z,7.18
2022-12-23T05:30:46.972Z,9.20
2022-12-23T05:33:15.042Z,7.57
2022-12-23T05:35:42.649Z,7.60
2022-12-23T05:38:10.272Z,6.50
2022-12-23T05:40:37.996Z,9.40
2022-12-23T05:43:07.100Z,6.83
2022-12-23T05:45:36.129Z,8.10
2022-12-23T05:48:03.820Z,8.80
2022-12-23T05:50:31.360Z,8.57
2022-12-23T05:52:58.994Z,8.93
2022-12-23T05:55:27.216Z,7.10
2022-12-23T05:57:55.541Z,7.32
2022-12-23T06:00:25.752Z,6.72
2022-12-23T06:02:54.414Z,5.63
2022-12-23T06:05:22.279Z,5.88
2022-12-23T06:07:49.932Z,8.10
2022-12-23T06:10:17.662Z,8.85
2022-12-23T06:12:45.229Z,6.30
2022-12-23T06:15:13.234Z,5.90
2022-12-23T06:17:42.279Z,6.47
2022-12-23T06:20:17.948Z,8.10
2022-12-23T06:22:48.117Z,5.60
2022-12-23T06:25:15.799Z,6.88
2022-12-23T06:27:43.313Z,5.60
2022-12-23T06:30:11.963Z,6.63
2022-12-23T06:32:40.091Z,7.00
2022-12-23T06:35:09.639Z,5.05
2022-12-23T06:37:37.381Z,5.65
2022-12-23T06:40:05.301Z,6.88
2022-12-23T06:42:32.878Z,6.68
2022-12-23T06:45:00.572Z,5.47
2022-12-23T06:47:28.638Z,5.32
2022-12-23T06:49:56.286Z,5.63
2022-12-23T06:52:25.354Z,7.50
2022-12-23T06:54:52.998Z,7.03
2022-12-23T06:57:20.640Z,7.63
2022-12-23T06:59:48.554Z,5.90
2022-12-23T07:02:17.010Z,5.40
2022-12-23T07:04:44.774Z,6.72
2022-12-23T07:07:12.781Z,4.80
2022-12-23T07:09:41.719Z,8.53
2022-12-23T07:12:09.334Z,6.78
2022-12-23T07:14:37.149Z,6.90
2022-12-23T07:17:04.768Z,5.90
2022-12-23T07:19:32.315Z,6.05
2022-12-23T07:22:00.332Z,5.43
2022-12-23T07:24:28.415Z,7.55
2022-12-23T07:26:57.329Z,5.78
2022-12-23T07:29:25.120Z,5.70
2022-12-23T07:31:53.182Z,6.30
2022-12-23T07:34:20.774Z,4.87
2022-12-23T07:36:48.571Z,6.22
2022-12-23T07:39:17.004Z,4.35
2022-12-23T07:41:46.559Z,6.80
2022-12-23T07:44:16.132Z,5.25
2022-12-23T07:46:44.009Z,3.93
2022-12-23T07:49:11.629Z,4.00
2022-12-23T07:51:39.392Z,4.35
2022-12-23T07:54:07.568Z,3.78
2022-12-23T07:56:35.161Z,4.35
2022-12-23T07:59:02.750Z,6.07
2022-12-23T08:01:31.799Z,4.00
2022-12-23T08:03:59.384Z,4.40
2022-12-23T08:06:27.408Z,5.45
2022-12-23T08:08:55.066Z,4.65
2022-12-23T08:11:23.107Z,4.57
2022-12-23T08:13:52.872Z,4.80
2022-12-23T08:16:20.706Z,4.90
2022-12-23T08:18:49.621Z,4.65
2022-12-23T08:21:19.530Z,4.00
2022-12-23T08:23:48.230Z,4.67
2022-12-23T08:26:16.693Z,4.50
2022-12-23T08:28:45.124Z,5.07
2022-12-23T08:31:13.762Z,4.85
2022-12-23T08:33:43.387Z,4.43
2022-12-23T08:36:19.245Z,4.53
2022-12-23T08:38:50.233Z,3.92
2022-12-23T08:41:20.236Z,3.05
2022-12-23T08:43:47.843Z,3.45
2022-12-23T08:46:15.554Z,2.92
2022-12-23T08:48:48.856Z,2.70
2022-12-23T08:51:19.595Z,4.32
2022-12-23T08:53:47.765Z,2.63
2022-12-23T08:56:17.915Z,2.40
2022-12-23T08:58:46.448Z,1.83
2022-12-23T09:01:15.728Z,2.50
2022-12-23T09:03:43.554Z,2.65
2022-12-23T09:06:12.860Z,3.20
2022-12-23T09:08:43.486Z,3.45
2022-12-23T09:11:11.433Z,2.35
2022-12-23T09:13:39.032Z,5.03
2022-12-23T09:16:07.355Z,2.15
2022-12-23T09:18:35.170Z,4.25
2022-12-23T09:21:04.662Z,1.77
2022-12-23T09:23:32.800Z,2.53
2022-12-23T09:26:06.709Z,1.90
2022-12-23T09:28:34.690Z,2.67
2022-12-23T09:31:07.408Z,2.90
2022-12-23T09:33:35.580Z,2.65
2022-12-23T09:36:03.227Z,3.33
2022-12-23T09:38:30.801Z,3.63
2022-12-23T09:41:03.073Z,4.15
2022-12-23T09:43:37.902Z,5.63
2022-12-23T09:46:10.083Z,3.70
2022-12-23T09:48:40.215Z,3.55
2022-12-23T09:51:08.160Z,5.80
2022-12-23T09:53:43.540Z,3.63
2022-12-23T09:56:16.706Z,3.70
2022-12-23T09:58:48.341Z,5.75
2022-12-23T10:01:19.878Z,4.32
2022-12-23T10:04:08.707Z,4.60
2022-12-23T10:06:45.877Z,5.32
2022-12-23T10:09:15.048Z,5.97
2022-12-23T10:11:46.986Z,5.68
2022-12-23T10:14:21.637Z,5.38
2022-12-23T10:16:51.245Z,8.33
2022-12-23T10:19:21.776Z,6.85
2022-12-23T10:21:50.154Z,5.10
2022-12-23T10:24:21.342Z,5.65
2022-12-23T10:26:52.676Z,6.55
2022-12-23T10:29:22.747Z,7.27
2022-12-23T10:31:58.440Z,6.60
2022-12-23T10:34:36.600Z,6.82
2022-12-23T10:37:08.317Z,6.13
2022-12-23T10:39:38.726Z,6.70
2022-12-23T10:42:09.695Z,5.57
2022-12-23T10:44:47.265Z,6.93
2022-12-23T10:47:19.618Z,7.78
2022-12-23T10:49:54.764Z,7.10
2022-12-23T10:52:24.521Z,6.95
2022-12-23T10:54:52.351Z,6.93
2022-12-23T10:57:21.092Z,9.65
2022-12-23T10:59:50.365Z,8.52
2022-12-23T11:02:30.318Z,5.90
2022-12-23T11:04:58.128Z,6.40
2022-12-23T11:07:43.982Z,8.60
2022-12-23T11:10:18.297Z,7.70
2022-12-23T11:12:47.310Z,8.05
2022-12-23T11:15:32.288Z,6.10
2022-12-23T11:18:04.535Z,9.35
2022-12-23T11:20:32.599Z,18.57
2022-12-23T11:23:02.326Z,9.13
2022-12-23T11:25:31.656Z,9.40
2022-12-23T11:28:00.325Z,9.35
2022-12-23T11:30:29.406Z,18.83
2022-12-23T11:32:58.784Z,13.63
2022-12-23T11:35:27.608Z,10.43
2022-12-23T11:37:56.638Z,11.20
2022-12-23T11:40:26.695Z,9.02
2022-12-23T11:42:57.189Z,17.20
2022-12-23T11:45:26.882Z,6.30
2022-12-23T11:47:54.562Z,16.60
2022-12-23T11:50:27.996Z,7.72
2022-12-23T11:52:56.757Z,15.02
2022-12-23T11:55:25.196Z,13.05
2022-12-23T11:57:53.468Z,6.60
2022-12-23T12:00:25.625Z,7.60
2022-12-23T12:02:54.459Z,14.68
2022-12-23T12:05:23.708Z,14.40
2022-12-23T12:07:53.074Z,15.93
2022-12-23T12:10:23.183Z,16.93
2022-12-23T12:12:54.839Z,9.52
2022-12-23T12:15:34.343Z,11.00
2022-12-23T12:18:02.512Z,8.55
2022-12-23T12:20:31.377Z,21.25
2022-12-23T12:23:02.034Z,11.93
2022-12-23T12:25:39.666Z,9.98
2022-12-23T12:28:18.203Z,11.10
2022-12-23T12:30:50.371Z,13.05
2022-12-23T12:33:20.330Z,12.55
2022-12-23T12:35:53.631Z,10.07
2022-12-23T12:38:25.990Z,12.20
2022-12-23T12:40:56.812Z,15.35
2022-12-23T12:43:27.695Z,13.25
2022-12-23T12:46:02.064Z,9.07
2022-12-23T12:48:33.739Z,14.60
2022-12-23T12:51:04.059Z,8.30
2022-12-23T12:53:33.356Z,13.63
2022-12-23T12:56:03.468Z,11.40
2022-12-23T12:58:31.056Z,9.05
2022-12-23T13:01:04.673Z,8.30
2022-12-23T13:03:46.778Z,10.38
2022-12-23T13:06:19.829Z,12.13
2022-12-23T13:08:56.588Z,12.25
2022-12-23T13:11:31.918Z,9.93
2022-12-23T13:14:01.841Z,15.33
2022-12-23T13:16:33.780Z,11.90
2022-12-23T13:19:04.391Z,12.93
2022-12-23T13:21:34.470Z,6.88
2022-12-23T13:24:08.939Z,7.97
2022-12-23T13:26:50.987Z,9.47
2022-12-23T13:29:39.031Z,7.72
2022-12-23T13:32:11.826Z,12.13
2022-12-23T13:34:48.123Z,5.30
2022-12-23T13:37:19.592Z,4.63
2022-12-23T13:39:55.111Z,12.90
2022-12-23T13:42:26.458Z,9.48
2022-12-23T13:44:54.708Z,9.32
2022-12-23T13:47:25.788Z,13.10
2022-12-23T13:49:57.135Z,8.75
2022-12-23T13:52:30.755Z,6.00
2022-12-23T13:55:02.119Z,7.90
2022-12-23T13:57:39.103Z,11.65
2022-12-23T14:00:23.359Z,13.13
2022-12-23T14:02:51.913Z,10.10
2022-12-23T14:05:33.913Z,9.23
2022-12-23T14:08:02.798Z,12.38
2022-12-23T14:10:32.341Z,7.47
2022-12-23T14:13:01.540Z,8.05
2022-12-23T14:15:36.074Z,8.40
2022-12-23T14:18:10.934Z,16.77
2022-12-23T14:20:45.598Z,9.65
2022-12-23T14:23:21.451Z,7.85
2022-12-23T14:25:56.871Z,14.02
2022-12-23T14:28:39.398Z,16.00
2022-12-23T14:31:07.244Z,7.77
2022-12-23T14:33:37.223Z,14.85
2022-12-23T14:36:22.978Z,10.93
2022-12-23T14:39:05.476Z,16.33
2022-12-23T14:41:39.403Z,12.63
2022-12-23T14:44:20.996Z,9.17
2022-12-23T14:46:57.876Z,17.02
2022-12-23T14:49:46.595Z,16.05
2022-12-23T14:52:32.965Z,9.65
2022-12-23T14:55:31.704Z,11.73
2022-12-23T14:58:07.781Z,16.97
2022-12-23T15:00:45.952Z,9.98
2022-12-23T15:03:13.939Z,9.25
2022-12-23T15:05:41.736Z,14.60
2022-12-23T15:08:20.276Z,10.00
2022-12-23T15:10:48.011Z,18.43
2022-12-23T15:13:18.386Z,11.07
2022-12-23T15:15:57.363Z,16.35
2022-12-23T15:18:28.358Z,13.02
2022-12-23T15:20:59.892Z,13.13
2022-12-23T15:23:27.471Z,14.97
2022-12-23T15:25:56.934Z,11.60
2022-12-23T15:28:29.605Z,14.38
2022-12-23T15:30:57.853Z,23.15
2022-12-23T15:34:01.424Z,7.97
2022-12-23T15:36:16.338Z,9.60
2022-12-23T15:38:44.029Z,11.25
2022-12-23T15:41:15.287Z,11.75
2022-12-23T15:43:44.827Z,10.65
2022-12-23T15:46:16.976Z,17.30
2022-12-23T15:48:44.804Z,11.57
2022-12-23T15:51:25.825Z,17.67
2022-12-23T15:54:05.306Z,18.95
2022-12-23T15:56:35.321Z,14.27
2022-12-23T15:59:04.593Z,15.70
2022-12-23T16:01:37.395Z,14.90
2022-12-23T16:04:09.038Z,16.20
2022-12-23T16:06:37.341Z,18.90
2022-12-23T16:09:05.984Z,14.30
2022-12-23T16:11:41.862Z,17.92
2022-12-23T16:14:27.760Z,16.10
2022-12-23T16:17:03.154Z,15.55
2022-12-23T16:19:41.316Z,22.65
2022-12-23T16:22:14.234Z,13.55
2022-12-23T16:24:45.151Z,16.85
2022-12-23T16:27:14.904Z,11.27
2022-12-23T16:29:44.032Z,20.98
2022-12-23T16:32:15.848Z,15.48
2022-12-23T16:34:44.488Z,17.08
2022-12-23T16:37:12.071Z,14.75
2022-12-23T16:39:40.648Z,23.93
2022-12-23T16:42:09.313Z,17.25
2022-12-23T16:44:36.835Z,15.18
2022-12-23T16:47:08.846Z,13.73
2022-12-23T16:49:37.389Z,20.85
2022-12-23T16:52:06.446Z,25.00
2022-12-23T16:54:34.164Z,11.55
2022-12-23T16:57:01.650Z,10.63
2022-12-23T16:59:29.204Z,21.77
2022-12-23T17:02:03.215Z,14.85
2022-12-23T17:04:34.338Z,20.93
2022-12-23T17:07:01.997Z,16.73
2022-12-23T17:09:29.520Z,21.38
2022-12-23T17:11:57.395Z,23.27
2022-12-23T17:14:25.787Z,16.92
2022-12-23T17:16:53.394Z,14.03
2022-12-23T17:19:27.678Z,15.73
2022-12-23T17:24:46.647Z,16.00
2022-12-23T17:27:20.589Z,17.00
2022-12-23T17:29:54.622Z,16.33
2022-12-23T17:32:22.441Z,21.98
2022-12-23T17:34:50.206Z,15.45
2022-12-23T17:37:20.570Z,13.30
2022-12-23T17:39:49.877Z,14.05
2022-12-23T17:42:24.973Z,11.50
2022-12-23T17:44:53.333Z,12.55
2022-12-23T17:47:22.397Z,16.52
2022-12-23T17:49:50.314Z,13.98
2022-12-23T17:52:19.920Z,13.25
2022-12-23T17:54:48.263Z,16.27
2022-12-23T17:57:18.985Z,15.88
2022-12-23T17:59:47.887Z,18.55
2022-12-23T18:02:21.629Z,19.02
2022-12-23T18:04:49.302Z,17.80
2022-12-23T18:07:17.026Z,14.13
2022-12-23T18:09:46.199Z,15.30
2022-12-23T18:12:25.092Z,16.65
2022-12-23T18:14:53.144Z,14.65
2022-12-23T18:17:20.656Z,18.85
2022-12-23T18:19:48.342Z,21.77
2022-12-23T18:22:17.605Z,20.15
2022-12-23T18:24:46.530Z,17.50
2022-12-23T18:27:18.339Z,18.65
2022-12-23T18:29:45.889Z,18.83
2022-12-23T18:32:20.406Z,23.83
2022-12-23T18:34:47.983Z,17.52
2022-12-23T18:37:15.897Z,23.67
2022-12-23T18:39:43.569Z,18.15
2022-12-23T18:42:13.886Z,19.77
2022-12-23T18:44:41.741Z,21.50
2022-12-23T18:47:09.576Z,15.43
2022-12-23T18:49:37.384Z,17.98
2022-12-23T18:52:07.117Z,18.23
2022-12-23T18:54:34.843Z,18.77
2022-12-23T18:57:03.118Z,19.23
2022-12-23T18:59:32.960Z,21.30
2022-12-23T19:02:00.928Z,23.48
2022-12-23T19:04:29.466Z,16.88
2022-12-23T19:06:57.435Z,27.40
2022-12-23T19:09:25.767Z,16.13
2022-12-23T19:11:54.142Z,14.45
2022-12-23T19:14:23.380Z,18.33
2022-12-23T19:16:52.972Z,14.80
2022-12-23T19:19:20.743Z,20.15
2022-12-23T19:21:50.985Z,15.97
2022-12-23T19:24:18.737Z,13.43
2022-12-23T19:26:46.368Z,21.20
2022-12-23T19:29:13.914Z,18.30
2022-12-23T19:31:41.721Z,16.63
2022-12-23T19:34:15.034Z,18.03
2022-12-23T19:36:43.335Z,15.65
2022-12-23T19:39:16.855Z,17.65
2022-12-23T19:41:44.892Z,18.52
2022-12-23T19:44:12.504Z,22.30
2022-12-23T19:46:40.788Z,19.70
2022-12-23T19:49:12.870Z,19.02
2022-12-23T19:51:45.381Z,19.75
2022-12-23T19:54:13.087Z,20.52
2022-12-23T19:56:40.696Z,16.13
2022-12-23T19:59:08.263Z,15.00
2022-12-23T20:01:36.718Z,17.63
2022-12-23T20:04:04.884Z,12.90
2022-12-23T20:06:34.962Z,15.90
2022-12-23T20:09:06.597Z,23.50
2022-12-23T20:11:35.378Z,18.17
2022-12-23T20:14:03.287Z,14.52
2022-12-23T20:16:31.300Z,18.98
2022-12-23T20:18:58.897Z,16.15
2022-12-23T20:21:26.517Z,13.65
2022-12-23T20:23:55.709Z,22.17
2022-12-23T20:26:23.867Z,17.67
2022-12-23T20:28:52.062Z,17.45
2022-12-23T20:31:21.083Z,15.88
2022-12-23T20:33:49.081Z,17.13
2022-12-23T20:36:17.947Z,12.97
2022-12-23T20:38:46.319Z,20.13
2022-12-23T20:41:16.448Z,14.75
2022-12-23T20:43:56.854Z,15.10
2022-12-23T20:46:33.478Z,20.52
2022-12-23T20:49:01.399Z,14.70
2022-12-23T20:51:29.146Z,16.30
2022-12-23T20:53:59.856Z,21.88
2022-12-23T20:56:30.203Z,15.82
2022-12-23T20:59:02.667Z,17.33
2022-12-23T21:01:31.399Z,18.03
2022-12-23T21:04:00.031Z,14.43
2022-12-23T21:06:28.160Z,16.27
2022-12-23T21:08:59.496Z,19.45
2022-12-23T21:11:32.370Z,18.10
2022-12-23T21:14:06.110Z,12.30
2022-12-23T21:16:35.834Z,15.23
2022-12-23T21:19:03.822Z,14.13
2022-12-23T21:21:31.943Z,16.60
2022-12-23T21:24:01.942Z,12.13
2022-12-23T21:26:31.829Z,18.43
2022-12-23T21:29:07.066Z,15.05
2022-12-23T21:31:35.943Z,15.38
2022-12-23T21:34:03.871Z,12.30
2022-12-23T21:36:33.265Z,18.13
2022-12-23T21:39:01.272Z,19.20
2022-12-23T21:41:29.750Z,15.85
2022-12-23T21:43:58.993Z,13.70
2022-12-23T21:46:27.333Z,14.60
2022-12-23T21:48:56.244Z,14.65
2022-12-23T21:51:25.141Z,15.90
2022-12-23T21:53:58.550Z,11.68
2022-12-23T21:56:27.377Z,19.90
2022-12-23T21:58:56.035Z,17.52
2022-12-23T22:01:25.081Z,16.58
2022-12-23T22:03:53.306Z,8.37
2022-12-23T22:06:22.037Z,15.20
2022-12-23T22:08:50.210Z,16.05
2022-12-23T22:11:19.011Z,14.68
2022-12-23T22:13:46.600Z,15.38
2022-12-23T22:16:15.154Z,13.97
2022-12-23T22:18:44.951Z,9.98
2022-12-23T22:21:13.463Z,21.60
2022-12-23T22:23:41.034Z,18.75
2022-12-23T22:26:09.183Z,11.38
2022-12-23T22:28:37.445Z,14.40
2022-12-23T22:31:05.507Z,15.18
2022-12-23T22:33:33.464Z,18.40
2022-12-23T22:36:02.422Z,12.18
2022-12-23T22:38:30.008Z,15.77
2022-12-23T22:40:57.746Z,16.07
2022-12-23T22:43:25.352Z,17.40
2022-12-23T22:45:56.689Z,16.83
2022-12-23T22:48:24.581Z,15.82
2022-12-23T22:50:53.720Z,9.85
2022-12-23T22:53:29.371Z,17.60
2022-12-23T22:55:57.957Z,12.30
2022-12-23T22:58:25.608Z,16.25
2022-12-23T23:00:53.124Z,14.02
2022-12-23T23:03:21.189Z,16.50
2022-12-23T23:05:56.467Z,24.93
2022-12-23T23:08:26.777Z,20.75
2022-12-23T23:10:54.577Z,15.45
2022-12-23T23:13:22.166Z,15.65
2022-12-23T23:15:49.923Z,17.70
2022-12-23T23:18:17.529Z,15.90
2022-12-23T23:20:45.151Z,20.65
2022-12-23T23:23:13.054Z,18.58
2022-12-23T23:25:41.958Z,22.95
2022-12-23T23:28:09.688Z,21.08
2022-12-23T23:30:37.763Z,17.40
2022-12-23T23:33:05.392Z,19.30
2022-12-23T23:35:33.095Z,14.80
2022-12-23T23:38:00.815Z,15.75
2022-12-23T23:40:28.352Z,18.05
2022-12-23T23:42:57.271Z,17.13
2022-12-23T23:45:25.010Z,14.95
2022-12-23T23:47:52.558Z,19.05
2022-12-23T23:50:20.222Z,19.88
2022-12-23T23:52:47.978Z,22.52
2022-12-23T23:55:15.580Z,14.80
2022-12-23T23:57:43.167Z,19.55
